createdAt,value
2019-06-26T00:00:52.353Z,74
2019-06-26T00:01:52.391Z,74
2019-06-26T00:02:52.395Z,74
2019-06-26T00:03:52.449Z,74
2019-06-26T00:04:52.474Z,74
2019-06-26T00:05:52.662Z,75
2019-06-26T00:06:52.511Z,74
2019-06-26T00:07:52.558Z,74
2019-06-26T00:08:52.575Z,75
2019-06-26T00:09:52.601Z,75
2019-06-26T00:10:52.653Z,74
2019-06-26T00:11:52.647Z,74
2019-06-26T00:12:52.678Z,74
2019-06-26T00:13:52.744Z,74
2019-06-26T00:14:52.711Z,74
2019-06-26T00:15:52.738Z,74
2019-06-26T00:16:52.751Z,74
2019-06-26T00:17:52.803Z,75
2019-06-26T00:18:52.825Z,75
2019-06-26T00:19:52.819Z,75
2019-06-26T00:20:52.839Z,75
2019-06-26T00:21:52.860Z,75
2019-06-26T00:22:52.863Z,75
2019-06-26T00:23:52.874Z,75
2019-06-26T00:24:52.911Z,75
2019-06-26T00:25:52.906Z,75
2019-06-26T00:26:52.939Z,75
2019-06-26T00:27:52.923Z,75
2019-06-26T00:28:52.947Z,75
2019-06-26T00:29:52.974Z,76
2019-06-26T00:30:52.980Z,75
2019-06-26T00:31:52.976Z,75
2019-06-26T00:32:53.019Z,75
2019-06-26T00:33:53.042Z,75
2019-06-26T00:34:53.021Z,75
2019-06-26T00:35:53.058Z,75
2019-06-26T00:36:53.063Z,75
2019-06-26T00:37:53.061Z,75
2019-06-26T00:38:53.083Z,75
2019-06-26T00:39:53.083Z,75
2019-06-26T00:40:53.101Z,75
2019-06-26T00:41:53.147Z,75
2019-06-26T00:42:53.133Z,75
2019-06-26T00:43:53.126Z,75
2019-06-26T00:44:53.158Z,75
2019-06-26T00:45:53.171Z,75
2019-06-26T00:46:53.180Z,75
2019-06-26T00:47:53.220Z,75
2019-06-26T00:48:53.208Z,75
2019-06-26T00:49:53.169Z,75
2019-06-26T00:50:53.166Z,75
2019-06-26T00:51:53.218Z,76
2019-06-26T00:52:53.188Z,76
2019-06-26T00:53:53.190Z,75
2019-06-26T00:54:53.336Z,76
2019-06-26T00:55:55.211Z,76
2019-06-26T00:56:53.207Z,76
2019-06-26T00:57:53.283Z,75
2019-06-26T00:58:53.328Z,75
2019-06-26T00:59:53.430Z,75
2019-06-26T01:00:53.460Z,75
2019-06-26T01:01:53.507Z,76
2019-06-26T01:02:53.553Z,75
2019-06-26T01:03:53.617Z,74
2019-06-26T01:04:53.652Z,75
2019-06-26T01:05:53.708Z,75
2019-06-26T01:06:53.755Z,75
2019-06-26T01:07:53.821Z,75
2019-06-26T01:08:53.862Z,74
2019-06-26T01:09:53.901Z,74
2019-06-26T01:10:53.937Z,74
2019-06-26T01:11:54.033Z,74
2019-06-26T01:12:54.048Z,74
2019-06-26T01:13:57.893Z,74
2019-06-26T01:14:54.174Z,74
2019-06-26T01:15:54.228Z,74
2019-06-26T01:16:54.301Z,74
2019-06-26T01:17:55.346Z,74
2019-06-26T01:18:54.342Z,74
2019-06-26T01:19:54.429Z,74
2019-06-26T01:20:54.440Z,74
2019-06-26T01:21:54.424Z,74
2019-06-26T01:22:54.429Z,74
2019-06-26T01:23:54.469Z,73
2019-06-26T01:24:54.554Z,73
2019-06-26T01:25:54.552Z,73
2019-06-26T01:26:54.596Z,73
2019-06-26T01:27:54.686Z,74
2019-06-26T01:28:54.699Z,74
2019-06-26T01:29:54.744Z,74
2019-06-26T01:30:54.765Z,74
2019-06-26T01:31:54.802Z,74
2019-06-26T01:32:54.869Z,74
2019-06-26T01:33:54.876Z,74
2019-06-26T01:34:54.905Z,74
2019-06-26T01:35:54.938Z,74
2019-06-26T01:36:54.987Z,74
2019-06-26T01:37:55.027Z,74
2019-06-26T01:38:55.056Z,75
2019-06-26T01:39:55.153Z,74
2019-06-26T01:40:55.136Z,74
2019-06-26T01:41:55.168Z,74
2019-06-26T01:42:55.193Z,74
2019-06-26T01:43:55.238Z,74
2019-06-26T01:44:55.285Z,74
2019-06-26T01:45:55.294Z,74
2019-06-26T01:46:57.783Z,74
2019-06-26T01:47:55.357Z,74
2019-06-26T01:48:55.397Z,74
2019-06-26T01:49:55.440Z,74
2019-06-26T01:50:55.489Z,74
2019-06-26T01:51:55.505Z,74
2019-06-26T01:52:55.538Z,74
2019-06-26T01:53:55.554Z,74
2019-06-26T01:54:55.591Z,73
2019-06-26T01:55:55.658Z,74
2019-06-26T01:56:55.646Z,73
2019-06-26T01:57:55.681Z,73
2019-06-26T01:58:55.942Z,72
2019-06-26T01:59:55.819Z,72
2019-06-26T02:00:55.829Z,72
2019-06-26T02:01:55.835Z,73
2019-06-26T02:02:55.876Z,73
2019-06-26T02:03:55.914Z,73
2019-06-26T02:04:55.961Z,73
2019-06-26T02:05:56.012Z,73
2019-06-26T02:06:55.997Z,73
2019-06-26T02:07:56.043Z,73
2019-06-26T02:08:56.054Z,73
2019-06-26T02:09:56.052Z,73
2019-06-26T02:10:56.085Z,73
2019-06-26T02:11:56.152Z,73
2019-06-26T02:12:56.204Z,73
2019-06-26T02:13:56.160Z,74
2019-06-26T02:14:56.203Z,74
2019-06-26T02:15:56.203Z,73
2019-06-26T02:16:56.250Z,73
2019-06-26T02:17:56.249Z,73
2019-06-26T02:18:56.270Z,73
2019-06-26T02:19:56.294Z,73
2019-06-26T02:20:56.315Z,73
2019-06-26T02:21:56.334Z,73
2019-06-26T02:22:56.385Z,73
2019-06-26T02:23:56.378Z,73
2019-06-26T02:24:56.390Z,73
2019-06-26T02:25:56.413Z,72
2019-06-26T02:26:56.424Z,72
2019-06-26T02:27:56.469Z,71
2019-06-26T02:28:56.465Z,72
2019-06-26T02:29:56.479Z,72
2019-06-26T02:30:56.486Z,72
2019-06-26T02:31:56.502Z,71
2019-06-26T02:32:56.548Z,71
2019-06-26T02:33:56.532Z,71
2019-06-26T02:34:56.544Z,71
2019-06-26T02:35:56.593Z,71
2019-06-26T02:36:56.570Z,71
2019-06-26T02:37:56.597Z,70
2019-06-26T02:38:56.587Z,70
2019-06-26T02:39:56.721Z,70
2019-06-26T02:40:56.590Z,71
2019-06-26T02:41:56.633Z,70
2019-06-26T02:42:56.607Z,70
2019-06-26T02:43:56.611Z,70
2019-06-26T02:44:56.633Z,70
2019-06-26T02:45:56.610Z,70
2019-06-26T02:47:13.571Z,70
2019-06-26T02:47:56.712Z,70
2019-06-26T02:48:56.605Z,70
2019-06-26T02:49:56.690Z,70
2019-06-26T02:50:56.764Z,70
2019-06-26T02:51:56.769Z,71
2019-06-26T02:52:56.827Z,70
2019-06-26T02:53:56.902Z,70
2019-06-26T02:54:56.963Z,71
2019-06-26T02:55:57.031Z,70
2019-06-26T02:56:57.082Z,71
2019-06-26T02:57:57.120Z,71
2019-06-26T02:58:57.120Z,71
2019-06-26T02:59:57.153Z,71
2019-06-26T03:00:57.252Z,71
2019-06-26T03:01:57.262Z,72
2019-06-26T03:02:57.272Z,71
2019-06-26T03:03:57.314Z,71
2019-06-26T03:04:57.362Z,71
2019-06-26T03:05:57.463Z,71
2019-06-26T03:06:57.448Z,71
2019-06-26T03:07:57.511Z,71
2019-06-26T03:08:57.559Z,71
2019-06-26T03:09:57.626Z,71
2019-06-26T03:10:57.568Z,71
2019-06-26T03:11:57.593Z,71
2019-06-26T03:12:57.653Z,71
2019-06-26T03:13:57.717Z,71
2019-06-26T03:15:08.041Z,71
2019-06-26T03:15:57.791Z,71
2019-06-26T03:16:57.842Z,71
2019-06-26T03:17:57.888Z,71
2019-06-26T03:18:58.330Z,70
2019-06-26T03:19:58.028Z,70
2019-06-26T03:20:58.020Z,70
2019-06-26T03:21:58.041Z,70
2019-06-26T03:22:58.121Z,70
2019-06-26T03:23:58.118Z,70
2019-06-26T03:24:58.172Z,69
2019-06-26T03:25:58.211Z,69
2019-06-26T03:26:58.244Z,69
2019-06-26T03:27:58.282Z,69
2019-06-26T03:28:58.350Z,69
2019-06-26T03:29:58.462Z,69
2019-06-26T03:30:58.386Z,69
2019-06-26T03:31:58.411Z,68
2019-06-26T03:32:58.500Z,68
2019-06-26T03:33:58.525Z,68
2019-06-26T03:34:58.561Z,68
2019-06-26T03:35:58.572Z,68
2019-06-26T03:36:58.599Z,68
2019-06-26T03:37:58.613Z,68
2019-06-26T03:38:58.660Z,68
2019-06-26T03:39:58.685Z,68
2019-06-26T03:40:58.692Z,68
2019-06-26T03:41:58.742Z,68
2019-06-26T03:42:58.835Z,68
2019-06-26T03:43:58.840Z,68
2019-06-26T03:44:58.943Z,69
2019-06-26T03:45:58.949Z,68
2019-06-26T03:46:58.962Z,69
2019-06-26T03:47:58.969Z,69
2019-06-26T03:48:59.019Z,69
2019-06-26T03:50:00.228Z,69
2019-06-26T03:50:59.117Z,69
2019-06-26T03:51:59.129Z,69
2019-06-26T03:52:59.171Z,69
2019-06-26T03:53:59.152Z,69
2019-06-26T03:54:59.182Z,69
2019-06-26T03:55:59.273Z,69
2019-06-26T03:56:59.245Z,69
2019-06-26T03:57:59.267Z,68
2019-06-26T03:58:59.289Z,68
2019-06-26T03:59:59.331Z,68
2019-06-26T04:00:59.409Z,68
2019-06-26T04:01:59.397Z,69
2019-06-26T04:02:59.448Z,68
2019-06-26T04:03:59.502Z,68
2019-06-26T04:04:59.525Z,68
2019-06-26T04:05:59.549Z,68
2019-06-26T04:06:59.540Z,68
2019-06-26T04:07:59.577Z,68
2019-06-26T04:08:59.616Z,68
2019-06-26T04:09:59.604Z,68
2019-06-26T04:10:59.627Z,68
2019-06-26T04:11:59.687Z,68
2019-06-26T04:12:59.701Z,68
2019-06-26T04:13:59.722Z,68
2019-06-26T04:14:59.770Z,69
2019-06-26T04:15:59.776Z,68
2019-06-26T04:16:59.769Z,69
2019-06-26T04:17:59.809Z,69
2019-06-26T04:18:59.823Z,69
2019-06-26T04:19:59.847Z,69
2019-06-26T04:20:59.866Z,69
2019-06-26T04:21:59.906Z,69
2019-06-26T04:22:59.949Z,69
2019-06-26T04:23:59.931Z,70
2019-06-26T04:24:59.957Z,70
2019-06-26T04:25:59.989Z,70
2019-06-26T04:27:00.034Z,70
2019-06-26T04:28:00.060Z,70
2019-06-26T04:29:00.050Z,71
2019-06-26T04:30:00.096Z,71
2019-06-26T04:31:00.124Z,71
2019-06-26T04:32:00.123Z,71
2019-06-26T04:33:00.139Z,71
2019-06-26T04:34:03.273Z,71
2019-06-26T04:35:00.148Z,71
2019-06-26T04:36:00.167Z,71
2019-06-26T04:37:00.165Z,71
2019-06-26T04:38:00.193Z,70
2019-06-26T04:39:00.199Z,70
2019-06-26T04:40:00.200Z,71
2019-06-26T04:41:00.199Z,71
2019-06-26T04:42:00.217Z,71
2019-06-26T04:43:00.268Z,71
2019-06-26T04:44:00.255Z,71
2019-06-26T04:45:00.241Z,71
2019-06-26T04:46:00.253Z,71
2019-06-26T04:47:00.262Z,71
2019-06-26T04:48:00.279Z,70
2019-06-26T04:49:00.261Z,70
2019-06-26T04:50:00.281Z,70
2019-06-26T04:51:00.291Z,71
2019-06-26T04:52:00.290Z,71
2019-06-26T04:53:00.304Z,70
2019-06-26T04:54:00.346Z,70
2019-06-26T04:55:00.304Z,71
2019-06-26T04:56:00.316Z,70
2019-06-26T04:57:00.317Z,69
2019-06-26T04:58:00.317Z,70
2019-06-26T04:59:00.378Z,70
2019-06-26T05:00:00.446Z,70
2019-06-26T05:01:00.504Z,70
2019-06-26T05:02:00.556Z,70
2019-06-26T05:03:00.643Z,71
2019-06-26T05:04:00.690Z,71
2019-06-26T05:05:00.784Z,71
2019-06-26T05:06:00.749Z,71
2019-06-26T05:07:00.802Z,72
2019-06-26T05:08:00.948Z,72
2019-06-26T05:09:00.913Z,72
2019-06-26T05:10:01.049Z,72
2019-06-26T05:11:01.017Z,72
2019-06-26T05:12:01.133Z,72
2019-06-26T05:13:01.091Z,73
2019-06-26T05:14:01.334Z,72
2019-06-26T05:15:01.193Z,73
2019-06-26T05:16:14.073Z,72
2019-06-26T05:17:01.309Z,72
2019-06-26T05:18:01.272Z,73
2019-06-26T05:19:01.282Z,73
2019-06-26T05:20:01.309Z,73
2019-06-26T05:21:01.371Z,73
2019-06-26T05:22:01.441Z,73
2019-06-26T05:23:01.476Z,73
2019-06-26T05:24:01.527Z,72
2019-06-26T05:25:01.566Z,72
2019-06-26T05:26:01.642Z,71
2019-06-26T05:27:01.694Z,72
2019-06-26T05:28:01.714Z,73
2019-06-26T05:29:01.746Z,72
2019-06-26T05:30:01.768Z,72
2019-06-26T05:31:01.830Z,73
2019-06-26T05:32:01.846Z,73
2019-06-26T05:33:01.903Z,74
2019-06-26T05:34:02.007Z,74
2019-06-26T05:35:02.006Z,74
2019-06-26T05:36:02.197Z,74
2019-06-26T05:37:02.063Z,74
2019-06-26T05:38:02.114Z,74
2019-06-26T05:39:02.142Z,75
2019-06-26T05:40:02.218Z,74
2019-06-26T05:41:02.603Z,74
2019-06-26T05:42:02.312Z,75
2019-06-26T05:43:02.261Z,74
2019-06-26T05:44:02.333Z,74
2019-06-26T05:45:02.769Z,74
2019-06-26T05:46:03.414Z,74
2019-06-26T05:47:02.429Z,74
2019-06-26T05:48:02.515Z,74
2019-06-26T05:49:02.509Z,74
2019-06-26T05:50:02.608Z,73
2019-06-26T05:51:02.577Z,74
2019-06-26T05:52:02.590Z,73
2019-06-26T05:53:02.663Z,73
2019-06-26T05:54:02.708Z,73
2019-06-26T05:55:02.740Z,73
2019-06-26T05:56:02.787Z,72
2019-06-26T05:57:02.811Z,71
2019-06-26T05:58:03.134Z,70
2019-06-26T05:59:02.869Z,69
2019-06-26T06:00:02.877Z,70
2019-06-26T06:01:02.979Z,70
2019-06-26T06:02:03.058Z,68
2019-06-26T06:03:02.972Z,66
2019-06-26T06:04:03.030Z,66
2019-06-26T06:05:03.021Z,66
2019-06-26T06:06:03.061Z,67
2019-06-26T06:07:03.078Z,65
2019-06-26T06:08:03.083Z,64
2019-06-26T06:09:03.135Z,66
2019-06-26T06:10:03.216Z,67
2019-06-26T06:11:03.173Z,66
2019-06-26T06:12:03.188Z,66
2019-06-26T06:13:03.210Z,64
2019-06-26T06:14:03.332Z,64
2019-06-26T06:15:03.262Z,65
2019-06-26T06:16:06.323Z,66
2019-06-26T06:17:03.308Z,64
2019-06-26T06:18:03.473Z,63
2019-06-26T06:19:03.347Z,62
2019-06-26T06:20:03.374Z,61
2019-06-26T06:21:03.408Z,57
2019-06-26T06:22:04.460Z,57
2019-06-26T06:23:03.465Z,56
2019-06-26T06:24:03.487Z,55
2019-06-26T06:25:03.508Z,53
2019-06-26T06:26:03.507Z,56
2019-06-26T06:27:03.536Z,54
2019-06-26T06:28:03.590Z,54
2019-06-26T06:29:03.580Z,53
2019-06-26T06:30:03.727Z,53
2019-06-26T06:31:03.599Z,48
2019-06-26T06:32:03.612Z,52
2019-06-26T06:33:03.639Z,53
2019-06-26T06:34:03.666Z,54
2019-06-26T06:35:03.770Z,53
2019-06-26T06:36:03.678Z,50
2019-06-26T06:37:03.709Z,50
2019-06-26T06:38:03.719Z,51
2019-06-26T06:39:03.740Z,49
2019-06-26T06:40:03.795Z,48
2019-06-26T06:41:03.759Z,51
2019-06-26T06:42:03.771Z,49
2019-06-26T06:43:03.799Z,49
2019-06-26T06:44:03.817Z,46
2019-06-26T06:45:03.834Z,47
2019-06-26T06:46:03.804Z,46
2019-06-26T06:47:04.911Z,49
2019-06-26T06:48:03.885Z,46
2019-06-26T06:49:03.840Z,46
2019-06-26T06:50:03.883Z,44
2019-06-26T06:51:03.960Z,46
2019-06-26T06:52:03.832Z,45
2019-06-26T06:53:03.887Z,45
2019-06-26T06:54:03.846Z,41
2019-06-26T06:55:03.950Z,41
2019-06-26T06:56:03.972Z,42
2019-06-26T06:57:03.985Z,42
2019-06-26T06:58:06.537Z,42
2019-06-26T06:59:04.092Z,41
2019-06-26T07:00:04.143Z,40
2019-06-26T07:01:04.243Z,40
2019-06-26T07:02:05.264Z,42
2019-06-26T07:03:04.667Z,42
2019-06-26T07:04:04.951Z,42
2019-06-26T07:05:04.597Z,44
2019-06-26T07:06:05.847Z,43
2019-06-26T07:07:05.328Z,41
2019-06-26T07:08:04.609Z,41
2019-06-26T07:09:04.692Z,43
2019-06-26T07:10:04.779Z,41
2019-06-26T07:11:04.795Z,41
2019-06-26T07:12:04.983Z,40
2019-06-26T07:13:04.900Z,41
2019-06-26T07:14:05.027Z,40
2019-06-26T07:15:05.012Z,41
2019-06-26T07:16:05.063Z,40
2019-06-26T07:17:19.181Z,39
2019-06-26T07:18:05.189Z,39
2019-06-26T07:19:05.201Z,39
2019-06-26T07:20:05.211Z,39
2019-06-26T07:21:05.266Z,41
2019-06-26T07:22:07.307Z,41
2019-06-26T07:23:05.305Z,40
2019-06-26T07:24:05.377Z,42
2019-06-26T07:25:05.321Z,39
2019-06-26T07:26:05.410Z,40
2019-06-26T07:27:05.535Z,39
2019-06-26T07:28:05.793Z,39
2019-06-26T07:29:05.597Z,37
2019-06-26T07:30:05.590Z,37
2019-06-26T07:31:05.682Z,39
2019-06-26T07:32:05.743Z,36
2019-06-26T07:33:05.764Z,38
2019-06-26T07:34:05.814Z,38
2019-06-26T07:35:05.846Z,39
2019-06-26T07:36:05.883Z,40
2019-06-26T07:37:06.005Z,38
2019-06-26T07:38:05.958Z,38
2019-06-26T07:39:06.044Z,37
2019-06-26T07:40:06.062Z,38
2019-06-26T07:41:06.116Z,38
2019-06-26T07:42:06.154Z,36
2019-06-26T07:43:06.145Z,37
2019-06-26T07:44:06.142Z,37
2019-06-26T07:45:06.164Z,38
2019-06-26T07:46:06.201Z,36
2019-06-26T07:47:21.671Z,36
2019-06-26T07:48:06.303Z,35
2019-06-26T07:49:06.279Z,35
2019-06-26T07:50:06.467Z,38
2019-06-26T07:51:06.362Z,37
2019-06-26T07:52:06.378Z,38
2019-06-26T07:53:06.451Z,36
2019-06-26T07:54:06.450Z,36
2019-06-26T07:55:06.511Z,37
2019-06-26T07:56:06.511Z,37
2019-06-26T07:57:06.554Z,36
2019-06-26T07:58:06.592Z,37
2019-06-26T07:59:06.723Z,38
2019-06-26T08:00:06.774Z,33
2019-06-26T08:01:06.679Z,35
2019-06-26T08:02:06.717Z,37
2019-06-26T08:03:06.762Z,35
2019-06-26T08:04:06.838Z,37
2019-06-26T08:05:06.889Z,37
2019-06-26T08:06:06.880Z,35
2019-06-26T08:07:06.914Z,34
2019-06-26T08:08:06.944Z,35
2019-06-26T08:09:07.014Z,36
2019-06-26T08:10:07.027Z,34
2019-06-26T08:11:07.107Z,31
2019-06-26T08:12:07.151Z,32
2019-06-26T08:13:07.150Z,32
2019-06-26T08:14:07.144Z,34
2019-06-26T08:15:07.172Z,36
2019-06-26T08:16:07.191Z,36
2019-06-26T08:17:07.241Z,35
2019-06-26T08:18:07.228Z,37
2019-06-26T08:19:07.287Z,35
2019-06-26T08:20:07.284Z,35
2019-06-26T08:21:12.378Z,32
2019-06-26T08:22:07.314Z,32
2019-06-26T08:23:07.355Z,35
2019-06-26T08:24:07.385Z,35
2019-06-26T08:25:07.371Z,35
2019-06-26T08:26:07.423Z,37
2019-06-26T08:27:07.412Z,35
2019-06-26T08:28:07.546Z,36
2019-06-26T08:29:07.515Z,34
2019-06-26T08:30:07.490Z,36
2019-06-26T08:31:07.575Z,31
2019-06-26T08:32:07.514Z,36
2019-06-26T08:33:07.545Z,36
2019-06-26T08:34:07.574Z,36
2019-06-26T08:35:07.575Z,34
2019-06-26T08:36:07.588Z,33
2019-06-26T08:37:07.573Z,32
2019-06-26T08:38:11.236Z,34
2019-06-26T08:39:07.621Z,32
2019-06-26T08:40:07.641Z,34
2019-06-26T08:41:07.681Z,35
2019-06-26T08:42:07.653Z,36
2019-06-26T08:43:07.655Z,37
2019-06-26T08:44:07.651Z,33
2019-06-26T08:45:07.749Z,33
2019-06-26T08:46:07.699Z,33
2019-06-26T08:47:07.685Z,36
2019-06-26T08:48:19.203Z,37
2019-06-26T08:49:21.041Z,33
2019-06-26T08:50:07.707Z,32
2019-06-26T08:51:07.716Z,33
2019-06-26T08:52:07.751Z,32
2019-06-26T08:53:07.837Z,33
2019-06-26T08:54:07.863Z,38
2019-06-26T08:55:07.906Z,36
2019-06-26T08:56:07.989Z,36
2019-06-26T08:57:07.974Z,37
2019-06-26T08:58:08.066Z,37
2019-06-26T08:59:08.073Z,37
2019-06-26T09:00:08.189Z,38
2019-06-26T09:01:08.215Z,37
2019-06-26T09:02:08.204Z,34
2019-06-26T09:03:08.312Z,37
2019-06-26T09:04:08.273Z,32
2019-06-26T09:05:08.372Z,34
2019-06-26T09:06:08.368Z,34
2019-06-26T09:07:08.403Z,35
2019-06-26T09:08:08.858Z,36
2019-06-26T09:09:08.505Z,36
2019-06-26T09:10:08.585Z,35
2019-06-26T09:11:08.654Z,33
2019-06-26T09:12:08.660Z,32
2019-06-26T09:13:08.705Z,35
2019-06-26T09:14:08.780Z,32
2019-06-26T09:15:08.676Z,34
2019-06-26T09:16:08.803Z,35
2019-06-26T09:17:08.708Z,35
2019-06-26T09:18:08.775Z,33
2019-06-26T09:19:08.831Z,34
2019-06-26T09:20:08.867Z,32
2019-06-26T09:21:08.928Z,36
2019-06-26T09:22:08.934Z,35
2019-06-26T09:23:11.389Z,36
2019-06-26T09:24:09.100Z,35
2019-06-26T09:25:20.614Z,33
2019-06-26T09:26:09.142Z,33
2019-06-26T09:27:09.231Z,32
2019-06-26T09:28:10.316Z,35
2019-06-26T09:29:09.232Z,35
2019-06-26T09:30:09.294Z,36
2019-06-26T09:31:09.343Z,34
2019-06-26T09:32:09.361Z,35
2019-06-26T09:33:09.437Z,35
2019-06-26T09:34:09.433Z,36
2019-06-26T09:35:09.523Z,35
2019-06-26T09:36:09.550Z,34
2019-06-26T09:37:09.588Z,32
2019-06-26T09:38:09.659Z,32
2019-06-26T09:39:09.695Z,32
2019-06-26T09:40:09.738Z,35
2019-06-26T09:41:09.793Z,32
2019-06-26T09:42:09.809Z,33
2019-06-26T09:43:09.882Z,35
2019-06-26T09:44:09.890Z,32
2019-06-26T09:45:09.969Z,36
2019-06-26T09:46:10.176Z,37
2019-06-26T09:47:10.001Z,31
2019-06-26T09:48:10.033Z,32
2019-06-26T09:49:10.131Z,33
2019-06-26T09:50:10.149Z,35
2019-06-26T09:51:10.126Z,31
2019-06-26T09:52:10.140Z,32
2019-06-26T09:53:10.169Z,32
2019-06-26T09:54:10.202Z,31
2019-06-26T09:55:10.276Z,30
2019-06-26T09:56:10.255Z,31
2019-06-26T09:57:10.280Z,31
2019-06-26T09:58:13.088Z,32
2019-06-26T09:59:10.309Z,34
2019-06-26T10:00:10.364Z,32
2019-06-26T10:01:10.367Z,35
2019-06-26T10:02:10.560Z,32
2019-06-26T10:03:11.411Z,31
2019-06-26T10:04:10.466Z,30
2019-06-26T10:05:10.441Z,30
2019-06-26T10:06:10.400Z,32
2019-06-26T10:07:10.447Z,33
2019-06-26T10:08:10.880Z,33
2019-06-26T10:09:10.495Z,31
2019-06-26T10:10:10.545Z,35
2019-06-26T10:11:10.516Z,33
2019-06-26T10:12:10.530Z,29
2019-06-26T10:13:10.578Z,31
2019-06-26T10:14:10.586Z,31
2019-06-26T10:15:10.637Z,30
2019-06-26T10:16:10.652Z,29
2019-06-26T10:17:10.651Z,29
2019-06-26T10:18:10.670Z,30
2019-06-26T10:19:11.104Z,30
2019-06-26T10:20:10.756Z,28
2019-06-26T10:21:10.732Z,31
2019-06-26T10:22:10.785Z,33
2019-06-26T10:23:10.763Z,31
2019-06-26T10:24:10.792Z,32
2019-06-26T10:25:11.526Z,29
2019-06-26T10:26:10.815Z,29
2019-06-26T10:27:10.832Z,30
2019-06-26T10:28:10.854Z,31
2019-06-26T10:29:10.857Z,31
2019-06-26T10:30:10.859Z,30
2019-06-26T10:31:10.874Z,30
2019-06-26T10:32:10.938Z,29
2019-06-26T10:33:10.900Z,29
2019-06-26T10:34:10.916Z,28
2019-06-26T10:35:10.944Z,33
2019-06-26T10:36:10.953Z,31
2019-06-26T10:37:10.936Z,30
2019-06-26T10:38:11.081Z,29
2019-06-26T10:39:10.969Z,29
2019-06-26T10:40:10.992Z,30
2019-06-26T10:41:10.968Z,30
2019-06-26T10:42:10.969Z,32
2019-06-26T10:43:10.979Z,32
2019-06-26T10:44:10.963Z,29
2019-06-26T10:45:10.976Z,30
2019-06-26T10:46:10.963Z,27
2019-06-26T10:47:10.991Z,27
2019-06-26T10:48:10.999Z,28
2019-06-26T10:49:25.721Z,29
2019-06-26T10:50:11.084Z,28
2019-06-26T10:51:11.150Z,28
2019-06-26T10:52:11.238Z,28
2019-06-26T10:53:11.195Z,29
2019-06-26T10:54:11.307Z,31
2019-06-26T10:55:11.354Z,30
2019-06-26T10:56:11.313Z,29
2019-06-26T10:57:11.405Z,28
2019-06-26T10:58:11.394Z,26
2019-06-26T10:59:11.460Z,28
2019-06-26T11:00:11.548Z,30
2019-06-26T11:01:11.668Z,30
2019-06-26T11:02:11.629Z,27
2019-06-26T11:03:11.692Z,27
2019-06-26T11:04:11.722Z,28
2019-06-26T11:05:11.820Z,28
2019-06-26T11:06:11.833Z,33
2019-06-26T11:07:11.884Z,31
2019-06-26T11:08:11.938Z,30
2019-06-26T11:09:11.986Z,28
2019-06-26T11:10:12.074Z,26
2019-06-26T11:11:12.044Z,27
2019-06-26T11:12:12.096Z,28
2019-06-26T11:13:12.103Z,29
2019-06-26T11:14:12.138Z,30
2019-06-26T11:15:12.199Z,27
2019-06-26T11:16:12.186Z,28
2019-06-26T11:17:12.256Z,25
2019-06-26T11:18:14.847Z,27
2019-06-26T11:19:12.267Z,27
2019-06-26T11:20:12.343Z,26
2019-06-26T11:21:12.318Z,26
2019-06-26T11:22:12.424Z,28
2019-06-26T11:23:14.671Z,27
2019-06-26T11:24:12.530Z,28
2019-06-26T11:25:12.522Z,30
2019-06-26T11:26:12.538Z,30
2019-06-26T11:27:12.602Z,31
2019-06-26T11:28:12.637Z,31
2019-06-26T11:29:12.668Z,31
2019-06-26T11:30:12.720Z,30
2019-06-26T11:31:12.778Z,28
2019-06-26T11:32:12.809Z,29
2019-06-26T11:33:12.858Z,26
2019-06-26T11:34:12.880Z,29
2019-06-26T11:35:12.954Z,29
2019-06-26T11:36:12.973Z,26
2019-06-26T11:37:12.998Z,25
2019-06-26T11:38:13.032Z,26
2019-06-26T11:39:13.105Z,28
2019-06-26T11:40:13.178Z,27
2019-06-26T11:41:13.210Z,27
2019-06-26T11:42:13.236Z,27
2019-06-26T11:43:13.271Z,27
2019-06-26T11:44:13.358Z,29
2019-06-26T11:45:13.372Z,25
2019-06-26T11:46:13.418Z,27
2019-06-26T11:47:13.549Z,27
2019-06-26T11:48:13.571Z,27
2019-06-26T11:49:13.481Z,28
2019-06-26T11:50:13.644Z,26
2019-06-26T11:51:13.520Z,26
2019-06-26T11:52:13.554Z,26
2019-06-26T11:53:13.539Z,27
2019-06-26T11:54:13.566Z,27
2019-06-26T11:55:13.660Z,28
2019-06-26T11:56:13.754Z,28
2019-06-26T11:57:13.626Z,29
2019-06-26T11:58:13.676Z,25
2019-06-26T11:59:13.694Z,26
2019-06-26T12:00:13.731Z,27
2019-06-26T12:01:13.743Z,25
2019-06-26T12:02:13.757Z,26
2019-06-26T12:03:13.815Z,28
2019-06-26T12:04:13.835Z,28
2019-06-26T12:05:13.865Z,25
2019-06-26T12:06:18.796Z,25
2019-06-26T12:07:13.886Z,26
2019-06-26T12:08:13.963Z,26
2019-06-26T12:09:13.938Z,25
2019-06-26T12:10:14.060Z,25
2019-06-26T12:11:13.970Z,25
2019-06-26T12:12:13.998Z,27
2019-06-26T12:13:14.053Z,25
2019-06-26T12:14:14.032Z,28
2019-06-26T12:15:14.045Z,29
2019-06-26T12:16:14.058Z,24
2019-06-26T12:17:14.080Z,25
2019-06-26T12:18:14.095Z,26
2019-06-26T12:19:14.284Z,26
2019-06-26T12:20:18.881Z,25
2019-06-26T12:21:14.150Z,26
2019-06-26T12:22:14.188Z,25
2019-06-26T12:23:14.209Z,26
2019-06-26T12:24:14.247Z,26
2019-06-26T12:25:14.217Z,26
2019-06-26T12:26:14.223Z,28
2019-06-26T12:27:14.247Z,29
2019-06-26T12:28:14.261Z,26
2019-06-26T12:29:14.277Z,26
2019-06-26T12:30:14.269Z,25
2019-06-26T12:31:14.519Z,26
2019-06-26T12:32:14.433Z,28
2019-06-26T12:33:14.353Z,25
2019-06-26T12:34:14.303Z,26
2019-06-26T12:35:14.373Z,27
2019-06-26T12:36:14.520Z,27
2019-06-26T12:37:14.383Z,26
2019-06-26T12:38:14.478Z,25
2019-06-26T12:39:14.387Z,24
2019-06-26T12:40:14.357Z,26
2019-06-26T12:41:14.422Z,28
2019-06-26T12:42:14.578Z,27
2019-06-26T12:43:14.504Z,26
2019-06-26T12:44:14.613Z,23
2019-06-26T12:45:14.673Z,25
2019-06-26T12:46:17.145Z,26
2019-06-26T12:47:14.780Z,26
2019-06-26T12:48:16.196Z,25
2019-06-26T12:49:14.926Z,25
2019-06-26T12:50:14.921Z,25
2019-06-26T12:51:15.011Z,25
2019-06-26T12:52:17.820Z,27
2019-06-26T12:53:15.070Z,25
2019-06-26T12:54:15.213Z,25
2019-06-26T12:55:15.243Z,26
2019-06-26T12:56:22.472Z,26
2019-06-26T12:57:15.297Z,24
2019-06-26T12:58:19.610Z,26
2019-06-26T12:59:15.387Z,24
2019-06-26T13:00:15.439Z,24
2019-06-26T13:01:15.436Z,25
2019-06-26T13:02:15.484Z,25
2019-06-26T13:03:15.498Z,25
2019-06-26T13:04:15.588Z,26
2019-06-26T13:05:15.635Z,27
2019-06-26T13:06:15.720Z,25
2019-06-26T13:07:15.712Z,26
2019-06-26T13:08:15.737Z,27
2019-06-26T13:09:15.808Z,27
2019-06-26T13:10:15.892Z,25
2019-06-26T13:12:15.943Z,27
2019-06-26T13:13:15.932Z,24
2019-06-26T13:14:16.000Z,28
2019-06-26T13:15:16.025Z,27
2019-06-26T13:16:16.108Z,26
2019-06-26T13:17:16.097Z,25
2019-06-26T13:18:16.112Z,24
2019-06-26T13:19:16.172Z,25
2019-06-26T13:20:16.229Z,27
2019-06-26T13:21:16.304Z,27
2019-06-26T13:22:16.338Z,25
2019-06-26T13:23:16.330Z,25
2019-06-26T13:24:16.332Z,25
2019-06-26T13:25:16.434Z,25
2019-06-26T13:26:16.398Z,28
2019-06-26T13:27:16.413Z,26
2019-06-26T13:28:16.446Z,25
2019-06-26T13:29:16.488Z,24
2019-06-26T13:30:16.487Z,25
2019-06-26T13:31:16.531Z,26
2019-06-26T13:32:16.956Z,27
2019-06-26T13:33:16.578Z,28
2019-06-26T13:34:16.661Z,26
2019-06-26T13:35:16.657Z,26
2019-06-26T13:36:16.662Z,26
2019-06-26T13:37:16.740Z,25
2019-06-26T13:38:16.699Z,26
2019-06-26T13:39:16.756Z,26
2019-06-26T13:40:16.769Z,25
2019-06-26T13:41:16.819Z,26
2019-06-26T13:42:16.883Z,27
2019-06-26T13:43:16.861Z,27
2019-06-26T13:44:16.884Z,25
2019-06-26T13:45:16.936Z,24
2019-06-26T13:46:16.946Z,24
2019-06-26T13:47:17.025Z,25
2019-06-26T13:48:17.023Z,24
2019-06-26T13:49:17.070Z,26
2019-06-26T13:50:17.076Z,26
2019-06-26T13:51:17.094Z,25
2019-06-26T13:52:17.112Z,25
2019-06-26T13:53:17.127Z,27
2019-06-26T13:54:17.176Z,27
2019-06-26T13:55:17.183Z,26
2019-06-26T13:56:17.218Z,28
2019-06-26T13:57:17.218Z,27
2019-06-26T13:58:17.273Z,27
2019-06-26T13:59:17.292Z,27
2019-06-26T14:00:17.286Z,24
2019-06-26T14:01:17.312Z,27
2019-06-26T14:02:19.805Z,27
2019-06-26T14:03:17.339Z,26
2019-06-26T14:04:17.380Z,25
2019-06-26T14:05:17.358Z,25
2019-06-26T14:06:18.459Z,24
2019-06-26T14:07:17.392Z,25
2019-06-26T14:08:17.452Z,25
2019-06-26T14:09:17.433Z,26
2019-06-26T14:10:17.451Z,26
2019-06-26T14:11:17.442Z,24
2019-06-26T14:12:19.213Z,25
2019-06-26T14:13:17.503Z,25
2019-06-26T14:14:17.534Z,25
2019-06-26T14:15:17.533Z,25
2019-06-26T14:16:17.591Z,24
2019-06-26T14:17:17.510Z,26